Time;durP1;ratioP1;P1;durP2;ratioP2;P2;SDS_P1;SDS_P2;PMS_P1;PMS_P2;Temp;Humidity;BMP_temperature;BMP_pressure;BME280_temperature;BME280_humidity;BME280_pressure;Samples;Min_cycle;Max_cycle;Signal;HPM_P1;HPM_P2
2022/10/05 00:01:08;;;;;;;;;;;;;;;10.15;70.57;101737.13;5075362;28;19931;-89
2022/10/05 00:03:40;;;;;;;;;;;;;;;10.01;70.69;101749.03;5072139;28;19935;-93
2022/10/05 00:06:09;;;;;;;;;;;;;;;10.02;70.52;101748.09;5070441;28;19921;-89
2022/10/05 00:08:36;;;;;;;;;;;;;;;10.01;70.40;101748.19;5065257;28;20388;-92
2022/10/05 00:11:01;;;;;;;;;;;;;;;9.93;70.54;101754.25;5047596;28;20453;-91
2022/10/05 00:13:31;;;;;;;;;;;;;;;9.98;70.26;101751.16;5049366;28;19960;-91
2022/10/05 00:16:18;;;;;;;;;;;;;;;9.92;70.31;101758.72;5046050;28;19956;-91
2022/10/05 00:18:52;;;;;;;;;;;;;;;9.86;70.37;101764.63;5048949;28;19921;-91
2022/10/05 00:21:26;;;;;;;;;;;;;;;9.84;70.38;101761.22;5053760;28;19932;-93
2022/10/05 00:23:51;;;;;;;;;;;;;;;9.71;70.45;101760.53;5041923;28;19901;-92
2022/10/05 00:26:34;;;;;;;;;;;;;;;9.69;70.54;101770.56;5049656;28;19921;-92
2022/10/05 00:29:02;;;;;;;;;;;;;;;9.52;71.07;101778.19;5064459;28;19939;-92
2022/10/05 00:31:31;;;;;;;;;;;;;;;9.44;71.18;101771.75;5073869;28;19925;-89
2022/10/05 00:33:58;;;;;;;;;;;;;;;9.47;70.74;101772.34;5072880;28;19921;-91
2022/10/05 00:36:27;;;;;;;;;;;;;;;9.48;70.69;101775.88;5062068;28;19972;-91
2022/10/05 00:38:52;;;;;;;;;;;;;;;9.43;70.75;101781.63;5055678;28;19928;-91
2022/10/05 00:41:50;;;;;;;;;;;;;;;9.50;70.47;101782.84;5055642;28;19916;-92
2022/10/05 00:44:24;;;;;;;;;;;;;;;9.58;70.38;101782.22;5023292;28;19924;-93
2022/10/05 00:47:07;;;;;;;;;;;;;;;9.50;70.76;101779.28;5035480;28;19944;-94
2022/10/05 00:49:51;;;;;;;;;;;;;;;9.51;70.20;101791.75;5046854;28;19921;-90
2022/10/05 00:52:20;;;;;;;;;;;;;;;9.54;70.04;101785.28;5048670;28;19925;-92
2022/10/05 00:55:04;;;;;;;;;;;;;;;9.59;69.73;101783.06;5051164;28;19925;-90
2022/10/05 00:57:33;;;;;;;;;;;;;;;9.69;69.38;101795.59;5050609;28;19944;-91
2022/10/05 01:00:03;;;;;;;;;;;;;;;9.65;69.63;101793.31;5050501;28;19936;-91
2022/10/05 01:02:35;;;;;;;;;;;;;;;9.65;69.63;101796.00;5057770;28;19946;-92
2022/10/05 01:05:06;;;;;;;;;;;;;;;9.72;69.52;101799.88;5062672;28;20667;-90
2022/10/05 01:07:38;;;;;;;;;;;;;;;9.79;69.23;101801.06;5070442;28;19935;-90
2022/10/05 01:10:18;;;;;;;;;;;;;;;9.69;69.64;101800.97;5045349;28;19925;-93
2022/10/05 01:12:53;;;;;;;;;;;;;;;9.80;69.25;101808.13;5034394;28;19921;-91
2022/10/05 01:15:19;;;;;;;;;;;;;;;9.79;69.31;101806.44;5040608;28;20275;-92
2022/10/05 01:17:44;;;;;;;;;;;;;;;9.91;68.84;101810.75;5052816;28;19979;-91
2022/10/05 01:20:25;;;;;;;;;;;;;;;9.90;68.80;101803.69;5054188;28;19923;-92
2022/10/05 01:23:07;;;;;;;;;;;;;;;10.00;68.56;101802.94;5045055;28;19932;-91
2022/10/05 01:25:51;;;;;;;;;;;;;;;9.83;69.17;101805.19;5055216;28;20373;-91
2022/10/05 01:28:22;;;;;;;;;;;;;;;9.87;69.17;101809.31;5045637;28;19979;-92
2022/10/05 01:30:52;;;;;;;;;;;;;;;9.85;68.71;101807.75;5050853;28;19943;-92
2022/10/05 01:33:22;;;;;;;;;;;;;;;9.83;68.57;101810.56;5048749;28;19971;-91
2022/10/05 01:35:53;;;;;;;;;;;;;;;9.81;68.87;101819.72;5031137;28;19921;-91
2022/10/05 01:38:21;;;;;;;;;;;;;;;9.81;68.43;101820.59;5049471;28;19917;-91
2022/10/05 01:40:48;;;;;;;;;;;;;;;9.75;68.32;101815.72;5052249;28;20446;-91
2022/10/05 01:43:19;;;;;;;;;;;;;;;9.68;68.57;101818.03;5054580;28;19916;-93
2022/10/05 01:46:03;;;;;;;;;;;;;;;9.66;68.83;101820.00;5053763;28;19917;-92
2022/10/05 01:48:35;;;;;;;;;;;;;;;9.68;68.60;101819.88;5048072;28;19943;-93
2022/10/05 01:51:10;;;;;;;;;;;;;;;9.69;68.64;101821.56;5054722;28;19921;-92
2022/10/05 01:53:53;;;;;;;;;;;;;;;9.72;68.48;101826.72;5047823;28;19928;-92
2022/10/05 01:56:37;;;;;;;;;;;;;;;9.59;68.89;101820.66;5050955;28;19920;-91
2022/10/05 01:59:38;;;;;;;;;;;;;;;9.61;68.63;101832.97;5049182;28;19920;-92
2022/10/05 02:02:08;;;;;;;;;;;;;;;9.57;68.72;101838.72;5009011;28;19957;-92
2022/10/05 02:04:38;;;;;;;;;;;;;;;9.48;68.96;101830.44;5021897;28;19987;-91
2022/10/05 02:07:06;;;;;;;;;;;;;;;9.40;69.44;101832.03;5047563;28;19928;-93
2022/10/05 02:09:33;;;;;;;;;;;;;;;9.40;69.56;101837.41;5049373;28;20051;-92
2022/10/05 02:12:06;;;;;;;;;;;;;;;9.34;69.66;101836.09;5048672;28;19925;-91
2022/10/05 02:14:41;;;;;;;;;;;;;;;9.42;69.52;101841.66;5033000;28;19955;-93
2022/10/05 02:17:10;;;;;;;;;;;;;;;9.37;70.01;101838.50;5027133;28;19929;-92
2022/10/05 02:19:42;;;;;;;;;;;;;;;9.44;69.85;101844.25;5027980;28;19924;-91
2022/10/05 02:22:10;;;;;;;;;;;;;;;9.38;69.67;101850.94;5048528;28;19932;-91
2022/10/05 02:24:44;;;;;;;;;;;;;;;9.42;69.84;101855.09;5053975;28;19963;-92
2022/10/05 02:27:10;;;;;;;;;;;;;;;9.40;69.88;101854.34;5053084;28;19956;-92
2022/10/05 02:29:40;;;;;;;;;;;;;;;9.33;70.41;101852.31;5048618;28;20316;-91
2022/10/05 02:32:13;;;;;;;;;;;;;;;9.41;70.33;101861.44;5051187;28;19929;-92
2022/10/05 02:34:39;;;;;;;;;;;;;;;9.42;70.28;101857.78;5052601;28;19916;-92
2022/10/05 02:37:12;;;;;;;;;;;;;;;9.44;70.08;101861.19;5039471;28;19948;-92
2022/10/05 02:39:41;;;;;;;;;;;;;;;9.43;70.07;101862.16;5054611;28;19925;-92
2022/10/05 02:42:09;;;;;;;;;;;;;;;9.43;70.15;101859.47;5056412;28;19917;-92
2022/10/05 02:44:38;;;;;;;;;;;;;;;9.40;70.16;101862.41;5031915;28;19923;-91
2022/10/05 02:47:17;;;;;;;;;;;;;;;9.33;70.46;101866.56;5054954;28;19917;-90
2022/10/05 02:50:03;;;;;;;;;;;;;;;9.27;71.18;101865.25;5032211;28;19920;-91
2022/10/05 02:52:40;;;;;;;;;;;;;;;9.26;71.40;101871.56;5047849;28;19936;-91
2022/10/05 02:55:33;;;;;;;;;;;;;;;9.26;71.53;101873.41;5046025;28;19928;-91
2022/10/05 02:58:05;;;;;;;;;;;;;;;9.26;71.78;101868.88;5045165;28;20004;-90
2022/10/05 03:00:33;;;;;;;;;;;;;;;9.33;71.68;101876.47;5050651;28;20017;-93
2022/10/05 03:03:27;;;;;;;;;;;;;;;9.29;71.98;101873.16;5049421;28;20082;-92
2022/10/05 03:06:00;;;;;;;;;;;;;;;9.31;71.97;101873.88;5064150;28;19929;-91
2022/10/05 03:08:26;;;;;;;;;;;;;;;9.22;72.11;101877.31;5064391;28;19917;-91
2022/10/05 03:10:54;;;;;;;;;;;;;;;9.25;71.94;101871.72;5064822;28;19960;-92
2022/10/05 03:13:33;;;;;;;;;;;;;;;9.23;72.17;101871.81;5069358;28;19925;-92
2022/10/05 03:16:36;;;;;;;;;;;;;;;9.22;72.14;101883.50;5069006;28;19913;-91
2022/10/05 03:19:05;;;;;;;;;;;;;;;9.19;72.39;101896.34;5004268;28;20010;-91
2022/10/05 03:21:46;;;;;;;;;;;;;;;9.16;72.81;101900.13;5031523;28;19920;-91
2022/10/05 03:24:22;;;;;;;;;;;;;;;9.25;72.25;101903.91;5041804;28;20007;-93
2022/10/05 03:26:47;;;;;;;;;;;;;;;9.17;72.31;101906.34;5037995;28;20368;-90
2022/10/05 03:29:14;;;;;;;;;;;;;;;9.20;72.03;101904.28;5041604;28;19924;-92
2022/10/05 03:31:44;;;;;;;;;;;;;;;9.20;71.77;101909.66;5045728;28;19956;-92
2022/10/05 03:34:20;;;;;;;;;;;;;;;9.16;71.78;101904.66;5042176;28;19925;-92
2022/10/05 03:36:55;;;;;;;;;;;;;;;9.07;72.03;101909.75;5051917;28;19990;-92
2022/10/05 03:39:41;;;;;;;;;;;;;;;9.06;71.94;101910.72;5051956;28;19964;-90
2022/10/05 03:42:06;;;;;;;;;;;;;;;9.07;71.84;101923.16;5050121;28;19924;-92
2022/10/05 03:44:38;;;;;;;;;;;;;;;9.04;72.02;101917.19;5056100;28;19921;-92
2022/10/05 03:47:23;;;;;;;;;;;;;;;9.11;71.72;101923.78;5055767;28;19920;-92
2022/10/05 03:50:07;;;;;;;;;;;;;;;9.11;71.52;101915.72;5041601;28;19917;-94
2022/10/05 03:52:37;;;;;;;;;;;;;;;9.11;71.46;101923.78;5069366;28;19921;-92
2022/10/05 03:55:21;;;;;;;;;;;;;;;9.11;71.60;101922.91;5046465;28;19920;-91
2022/10/05 03:57:48;;;;;;;;;;;;;;;9.19;71.15;101931.22;5044195;28;19932;-90
2022/10/05 04:00:24;;;;;;;;;;;;;;;9.07;71.49;101933.03;5044361;28;20325;-91
2022/10/05 04:02:59;;;;;;;;;;;;;;;9.17;71.32;101933.16;5043197;28;19921;-91
2022/10/05 04:05:51;;;;;;;;;;;;;;;9.24;71.05;101939.75;5045039;28;19995;-86
2022/10/05 04:08:26;;;;;;;;;;;;;;;9.22;70.75;101941.69;5049608;28;19931;-90
2022/10/05 04:10:56;;;;;;;;;;;;;;;9.27;70.61;101950.25;5052186;28;20393;-91
2022/10/05 04:13:51;;;;;;;;;;;;;;;9.23;71.08;101949.66;5053071;28;19920;-88
2022/10/05 04:16:24;;;;;;;;;;;;;;;9.30;70.77;101950.03;5024171;28;20000;-90
2022/10/05 04:19:00;;;;;;;;;;;;;;;9.34;70.55;101951.50;5038404;28;19921;-89
2022/10/05 04:21:44;;;;;;;;;;;;;;;9.37;70.49;101951.25;5057699;28;19939;-88
2022/10/05 04:24:18;;;;;;;;;;;;;;;9.43;70.15;101961.47;5073173;28;20350;-90
2022/10/05 04:26:53;;;;;;;;;;;;;;;9.48;70.06;101961.09;5063920;28;19921;-90
2022/10/05 04:29:21;;;;;;;;;;;;;;;9.46;70.06;101966.63;5065193;28;19921;-90
2022/10/05 04:32:00;;;;;;;;;;;;;;;9.47;70.10;101967.47;5065049;28;19972;-89
2022/10/05 04:34:25;;;;;;;;;;;;;;;9.55;69.72;101972.22;5043710;28;19921;-90
2022/10/05 04:37:00;;;;;;;;;;;;;;;9.54;69.84;101975.88;5052120;28;19927;-90
2022/10/05 04:39:44;;;;;;;;;;;;;;;9.58;69.58;101975.53;5032874;28;19931;-92
2022/10/05 04:42:30;;;;;;;;;;;;;;;9.58;69.67;101982.72;5051340;28;19924;-90
2022/10/05 04:45:04;;;;;;;;;;;;;;;9.66;69.52;101989.19;5019549;28;20409;-89
2022/10/05 04:47:51;;;;;;;;;;;;;;;9.67;69.38;101988.22;5049663;28;19921;-92
2022/10/05 04:50:37;;;;;;;;;;;;;;;9.93;68.98;101990.63;5047749;28;19925;-90
2022/10/05 04:53:06;;;;;;;;;;;;;;;10.13;68.52;101991.69;5049841;28;19920;-89
2022/10/05 04:56:03;;;;;;;;;;;;;;;10.21;67.98;102001.81;5051291;28;19974;-88
2022/10/05 04:58:47;;;;;;;;;;;;;;;10.44;67.13;102008.00;5010886;28;20011;-89
2022/10/05 05:01:19;;;;;;;;;;;;;;;10.57;66.74;102006.00;5049293;28;20030;-88
2022/10/05 05:03:56;;;;;;;;;;;;;;;10.75;66.36;102009.84;5045077;28;19928;-93
2022/10/05 05:06:22;;;;;;;;;;;;;;;10.82;65.91;102015.56;5051093;28;20393;-92
2022/10/05 05:09:07;;;;;;;;;;;;;;;11.14;65.80;102020.91;5050686;28;20014;-93
2022/10/05 05:11:34;;;;;;;;;;;;;;;11.17;65.24;102023.34;5047068;28;19928;-92
2022/10/05 05:14:06;;;;;;;;;;;;;;;11.32;64.25;102020.31;5055139;28;19920;-93
2022/10/05 05:16:43;;;;;;;;;;;;;;;11.30;64.02;102024.97;5053480;28;19921;-92
2022/10/05 05:19:09;;;;;;;;;;;;;;;11.43;63.93;102020.22;5048355;28;19972;-90
2022/10/05 05:21:39;;;;;;;;;;;;;;;11.45;63.90;102028.16;5058015;28;19932;-93
2022/10/05 05:24:40;;;;;;;;;;;;;;;11.47;63.77;102031.56;5063217;28;19980;-91
2022/10/05 05:27:10;;;;;;;;;;;;;;;11.75;63.56;102030.88;5027158;28;19920;-91
2022/10/05 05:30:05;;;;;;;;;;;;;;;11.79;63.34;102028.75;5030958;28;19956;-91
2022/10/05 05:32:45;;;;;;;;;;;;;;;11.79;63.25;102039.53;5018998;28;19909;-92
2022/10/05 05:35:34;;;;;;;;;;;;;;;11.62;63.19;102041.88;5033761;28;19944;-93
2022/10/05 05:38:11;;;;;;;;;;;;;;;11.71;63.52;102051.00;5017691;28;19943;-93
2022/10/05 05:40:42;;;;;;;;;;;;;;;11.83;63.20;102043.69;5047339;28;19929;-91
2022/10/05 05:43:14;;;;;;;;;;;;;;;11.99;62.64;102052.13;5033786;28;20019;-91
2022/10/05 05:45:41;;;;;;;;;;;;;;;11.93;62.70;102058.06;5047481;28;20123;-91
2022/10/05 05:48:33;;;;;;;;;;;;;;;12.13;62.47;102058.16;5049519;28;19928;-88
2022/10/05 05:51:19;;;;;;;;;;;;;;;12.20;62.26;102070.09;5042786;28;19928;-88
2022/10/05 05:54:04;;;;;;;;;;;;;;;12.02;62.37;102064.47;5035333;28;19924;-90
2022/10/05 05:56:31;;;;;;;;;;;;;;;12.16;62.64;102066.81;5046236;28;20411;-89
2022/10/05 05:58:58;;;;;;;;;;;;;;;12.29;62.15;102068.38;5051573;28;19929;-91
2022/10/05 06:01:36;;;;;;;;;;;;;;;12.22;62.05;102074.34;5044569;28;19920;-92
2022/10/05 06:04:24;;;;;;;;;;;;;;;12.20;62.31;102073.63;5040633;28;20364;-93
2022/10/05 06:06:53;;;;;;;;;;;;;;;12.30;62.00;102081.75;5046541;28;19928;-91
2022/10/05 06:09:24;;;;;;;;;;;;;;;12.32;61.91;102081.63;5048350;28;19986;-88
2022/10/05 06:11:51;;;;;;;;;;;;;;;12.44;61.37;102092.16;5047390;28;20027;-86
2022/10/05 06:14:21;;;;;;;;;;;;;;;12.27;61.97;102084.72;5048022;28;19986;-87
2022/10/05 06:17:10;;;;;;;;;;;;;;;12.39;62.04;102091.72;5048498;28;20397;-91
2022/10/05 06:19:35;;;;;;;;;;;;;;;12.45;61.64;102087.59;5045649;28;20011;-90
2022/10/05 06:22:13;;;;;;;;;;;;;;;12.43;61.77;102095.84;5047108;28;19963;-88
2022/10/05 06:25:03;;;;;;;;;;;;;;;12.31;61.76;102096.91;5048873;28;19928;-92
2022/10/05 06:27:36;;;;;;;;;;;;;;;12.42;61.50;102102.22;5052366;28;20435;-94
2022/10/05 06:30:14;;;;;;;;;;;;;;;12.38;61.14;102097.22;5053373;28;20375;-92
2022/10/05 06:32:56;;;;;;;;;;;;;;;12.37;61.45;102101.78;5044298;28;19956;-91
2022/10/05 06:35:41;;;;;;;;;;;;;;;12.44;60.99;102100.22;5043462;28;19921;-92
2022/10/05 06:38:49;;;;;;;;;;;;;;;12.35;61.33;102103.75;5053954;28;19936;-89
2022/10/05 06:41:19;;;;;;;;;;;;;;;12.49;60.63;102101.66;5068822;28;19913;-90
2022/10/05 06:43:58;;;;;;;;;;;;;;;12.62;60.68;102102.28;5051811;28;19927;-94
2022/10/05 06:46:56;;;;;;;;;;;;;;;12.85;60.35;102094.75;5046399;28;19999;-90
2022/10/05 06:49:25;;;;;;;;;;;;;;;13.26;58.99;102096.31;5028393;28;19959;-90
2022/10/05 06:51:54;;;;;;;;;;;;;;;13.66;58.09;102107.97;5010803;28;20419;-89
2022/10/05 06:54:24;;;;;;;;;;;;;;;14.20;56.25;102097.38;5015232;28;19922;-89
2022/10/05 06:56:49;;;;;;;;;;;;;;;14.95;54.24;102101.63;5030173;28;19987;-91
2022/10/05 06:59:34;;;;;;;;;;;;;;;15.43;52.58;102106.75;5042896;28;20226;-91
2022/10/05 07:02:02;;;;;;;;;;;;;;;16.35;50.79;102108.84;5054385;28;19920;-93
2022/10/05 07:04:29;;;;;;;;;;;;;;;16.95;48.31;102099.72;5048121;28;19921;-93
2022/10/05 07:07:22;;;;;;;;;;;;;;;17.58;46.82;102108.19;5058083;28;19952;-90
2022/10/05 07:09:54;;;;;;;;;;;;;;;18.66;44.25;102105.81;5033826;28;19981;-94
2022/10/05 07:12:45;;;;;;;;;;;;;;;19.45;41.74;102110.19;5050203;28;20006;-91
2022/10/05 07:15:20;;;;;;;;;;;;;;;20.13;40.68;102113.75;5050254;28;19921;-91
2022/10/05 07:18:04;;;;;;;;;;;;;;;21.28;38.40;102108.38;5047451;28;19920;-91
2022/10/05 07:20:57;;;;;;;;;;;;;;;21.27;37.83;102101.19;5066585;28;19948;-93
2022/10/05 07:23:44;;;;;;;;;;;;;;;21.76;37.44;102104.97;5019772;28;19925;-92
2022/10/05 07:26:34;;;;;;;;;;;;;;;22.58;35.39;102110.69;5075094;28;19984;-90
2022/10/05 07:29:06;;;;;;;;;;;;;;;23.72;33.51;102107.88;4994499;28;20035;-91
2022/10/05 07:31:35;;;;;;;;;;;;;;;24.79;31.45;102099.28;5056137;28;19925;-91
2022/10/05 07:34:07;;;;;;;;;;;;;;;24.82;31.27;102098.88;5056967;28;19920;-88
2022/10/05 07:39:40;;;;;;;;;;;;;;;27.02;28.15;102108.44;5040159;28;20012;-91
2022/10/05 07:42:24;;;;;;;;;;;;;;;25.54;29.41;102104.03;5051660;28;20011;-90
2022/10/05 07:44:55;;;;;;;;;;;;;;;26.56;29.64;102104.44;5053795;28;19998;-91
2022/10/05 07:47:21;;;;;;;;;;;;;;;27.82;27.73;102109.84;5046718;28;19928;-90
2022/10/05 07:49:50;;;;;;;;;;;;;;;29.18;25.33;102106.53;5064764;28;19980;-92
2022/10/05 07:52:27;;;;;;;;;;;;;;;30.15;24.08;102103.56;5032509;28;19928;-94
2022/10/05 07:55:05;;;;;;;;;;;;;;;30.76;23.47;102106.22;5030959;28;19944;-92
2022/10/05 07:58:02;;;;;;;;;;;;;;;31.65;22.08;102113.13;5057619;28;20362;-91
2022/10/05 08:00:48;;;;;;;;;;;;;;;31.73;22.13;102110.69;5053753;28;20445;-90
2022/10/05 08:03:46;;;;;;;;;;;;;;;33.00;20.40;102106.72;5055256;28;20337;-91
2022/10/05 08:06:17;;;;;;;;;;;;;;;33.17;20.21;102114.00;5012022;28;19917;-91
2022/10/05 08:08:45;;;;;;;;;;;;;;;33.50;19.89;102108.97;5050576;28;19943;-94
2022/10/05 08:11:16;;;;;;;;;;;;;;;34.32;19.68;102108.75;5043484;28;19932;-92
2022/10/05 08:13:53;;;;;;;;;;;;;;;35.06;18.07;102110.53;5038601;28;21378;-91
2022/10/05 08:16:18;;;;;;;;;;;;;;;35.06;18.12;102101.31;5030468;28;19921;-94
2022/10/05 08:19:22;;;;;;;;;;;;;;;35.33;17.45;102108.38;5059301;28;19925;-91
2022/10/05 08:21:51;;;;;;;;;;;;;;;35.79;17.20;102103.16;4963831;28;19926;-92
2022/10/05 08:24:31;;;;;;;;;;;;;;;36.81;16.58;102112.22;4974389;28;19929;-92
2022/10/05 08:27:17;;;;;;;;;;;;;;;37.21;15.78;102103.47;5017745;28;19925;-91
2022/10/05 08:29:48;;;;;;;;;;;;;;;38.15;14.98;102105.03;5036163;28;19951;-91
2022/10/05 08:32:23;;;;;;;;;;;;;;;38.60;14.35;102093.94;5049449;28;19992;-93
2022/10/05 08:34:48;;;;;;;;;;;;;;;39.47;13.27;102088.94;5043764;28;19964;-92
2022/10/05 08:37:26;;;;;;;;;;;;;;;39.08;13.66;102093.34;5049937;28;20412;-88
2022/10/05 08:40:09;;;;;;;;;;;;;;;40.67;12.22;102088.75;5051976;28;19917;-89
2022/10/05 08:42:48;;;;;;;;;;;;;;;41.20;12.33;102081.94;5041682;28;20020;-89
2022/10/05 08:45:32;;;;;;;;;;;;;;;41.88;11.92;102072.69;5052210;28;20242;-95
2022/10/05 08:48:18;;;;;;;;;;;;;;;42.03;11.47;102074.97;5053005;28;19948;-89
2022/10/05 08:50:44;;;;;;;;;;;;;;;42.75;10.87;102072.06;5056292;28;19988;-90
2022/10/05 08:53:18;;;;;;;;;;;;;;;43.23;10.35;102070.63;5070205;28;19909;-91
2022/10/05 08:56:13;;;;;;;;;;;;;;;;;;;;;
2022/10/05 08:58:57;;;;;;;;;;;;;;;43.73;9.12;102066.63;5053840;28;19996;-91
2022/10/05 09:01:26;;;;;;;;;;;;;;;44.23;8.97;102070.25;5048096;28;19924;-90
2022/10/05 09:04:28;;;;;;;;;;;;;;;44.29;8.03;102059.50;5049393;28;20019;-89
2022/10/05 09:07:12;;;;;;;;;;;;;;;44.61;7.77;102060.47;4972242;28;19922;-89
2022/10/05 09:09:46;;;;;;;;;;;;;;;44.73;7.79;102062.44;5047019;28;20044;-91
2022/10/05 09:12:26;;;;;;;;;;;;;;;45.30;7.86;102075.34;5053584;28;19993;-91
2022/10/05 09:15:10;;;;;;;;;;;;;;;45.73;7.18;102065.09;5054091;28;19936;-91
2022/10/05 09:17:46;;;;;;;;;;;;;;;45.62;6.75;102069.72;5042304;28;19963;-92
2022/10/05 09:20:29;;;;;;;;;;;;;;;45.33;6.89;102068.13;5047019;28;19928;-90
2022/10/05 09:22:58;;;;;;;;;;;;;;;45.18;6.85;102072.59;5050686;28;20019;-90
2022/10/05 09:25:43;;;;;;;;;;;;;;;45.27;6.94;102076.09;5033912;28;19951;-90
2022/10/05 09:28:23;;;;;;;;;;;;;;;45.17;7.25;102070.91;5018595;28;19921;-90
2022/10/05 09:31:09;;;;;;;;;;;;;;;45.20;6.90;102067.41;5030986;28;20299;-89
2022/10/05 09:33:41;;;;;;;;;;;;;;;45.84;6.43;102071.03;5030592;28;19917;-89
2022/10/05 09:36:14;;;;;;;;;;;;;;;45.85;6.53;102079.19;5046801;28;19920;-89
2022/10/05 09:38:43;;;;;;;;;;;;;;;46.11;6.54;102078.59;5058288;28;19921;-89
2022/10/05 09:41:15;;;;;;;;;;;;;;;46.61;6.24;102073.16;5055665;28;19920;-90
2022/10/05 09:43:50;;;;;;;;;;;;;;;46.04;5.99;102086.13;5051832;28;19971;-88
2022/10/05 09:46:28;;;;;;;;;;;;;;;46.23;6.06;102089.00;5050288;28;19927;-90
2022/10/05 09:49:10;;;;;;;;;;;;;;;46.08;6.46;102075.66;5048979;28;20380;-90
2022/10/05 09:51:54;;;;;;;;;;;;;;;46.87;5.75;102074.50;5043796;28;19921;-91
2022/10/05 09:54:39;;;;;;;;;;;;;;;46.98;5.72;102072.69;5049848;28;20312;-91
2022/10/05 09:57:21;;;;;;;;;;;;;;;47.24;5.55;102059.75;5043879;28;19928;-91
2022/10/05 09:59:58;;;;;;;;;;;;;;;47.78;5.17;102062.25;5046640;28;19921;-90
2022/10/05 10:02:27;;;;;;;;;;;;;;;44.65;6.08;102062.22;5050500;28;19971;-90
2022/10/05 10:05:19;;;;;;;;;;;;;;;44.44;6.39;102070.09;5047706;28;19924;-91
2022/10/05 10:07:53;;;;;;;;;;;;;;;44.17;6.66;102069.69;5034182;28;19925;-90
2022/10/05 10:10:34;;;;;;;;;;;;;;;43.62;7.80;102060.66;5059373;28;19927;-89
2022/10/05 10:13:19;;;;;;;;;;;;;;;44.14;7.65;102061.06;5054337;28;20460;-92
2022/10/05 10:16:06;;;;;;;;;;;;;;;44.85;7.45;102059.53;5051018;28;20384;-90
2022/10/05 10:18:44;;;;;;;;;;;;;;;43.09;9.07;102058.78;5053666;28;19917;-88
2022/10/05 10:21:28;;;;;;;;;;;;;;;41.51;9.85;102055.41;5057394;28;19964;-89
2022/10/05 10:24:05;;;;;;;;;;;;;;;41.49;10.55;102054.91;5052971;28;19924;-87
2022/10/05 10:26:50;;;;;;;;;;;;;;;39.82;11.11;102044.91;5049636;28;19920;-88
2022/10/05 10:29:30;;;;;;;;;;;;;;;39.79;10.96;102047.53;5052376;28;19936;-88
2022/10/05 10:32:14;;;;;;;;;;;;;;;39.43;11.32;102040.09;5051206;28;19927;-90
2022/10/05 10:34:58;;;;;;;;;;;;;;;38.41;12.42;102049.94;5049996;28;19917;-89
2022/10/05 10:37:34;;;;;;;;;;;;;;;36.14;13.49;102045.94;5053108;28;19921;-87
2022/10/05 10:40:09;;;;;;;;;;;;;;;35.67;13.55;102038.44;5057702;28;20024;-88
2022/10/05 10:42:53;;;;;;;;;;;;;;;35.88;14.07;102045.44;5056632;28;19920;-88
2022/10/05 10:45:31;;;;;;;;;;;;;;;35.40;13.67;102044.56;5057908;28;19927;-89
2022/10/05 10:48:02;;;;;;;;;;;;;;;36.68;13.45;102049.38;5068905;28;19972;-92
2022/10/05 10:50:47;;;;;;;;;;;;;;;37.35;12.94;102049.06;5061140;28;20000;-86
2022/10/05 10:53:34;;;;;;;;;;;;;;;37.52;13.32;102037.22;5048209;28;20404;-90
2022/10/05 10:56:02;;;;;;;;;;;;;;;36.84;13.72;102026.72;5049078;28;19925;-90
2022/10/05 10:58:46;;;;;;;;;;;;;;;35.12;15.59;102029.47;5048639;28;19927;-90
2022/10/05 11:01:30;;;;;;;;;;;;;;;33.80;16.03;102030.84;5045488;28;19925;-89
2022/10/05 11:04:14;;;;;;;;;;;;;;;33.58;16.57;102022.00;5034499;28;19917;-89
2022/10/05 11:06:55;;;;;;;;;;;;;;;34.04;15.72;102030.16;5043093;28;19924;-89
2022/10/05 11:09:30;;;;;;;;;;;;;;;34.65;15.81;102024.28;5057136;28;19968;-89
2022/10/05 11:12:00;;;;;;;;;;;;;;;33.97;16.42;102026.84;5043794;28;20249;-89
2022/10/05 11:14:41;;;;;;;;;;;;;;;32.76;17.28;102034.03;5039377;28;20450;-90
2022/10/05 11:17:25;;;;;;;;;;;;;;;32.21;18.32;102034.75;5048896;28;19921;-88
2022/10/05 11:20:02;;;;;;;;;;;;;;;32.07;18.99;102028.84;5042616;28;19916;-89
2022/10/05 11:22:40;;;;;;;;;;;;;;;32.25;18.62;102024.75;5044137;28;19917;-89
2022/10/05 11:25:23;;;;;;;;;;;;;;;32.52;17.60;102019.81;5035212;28;19929;-90
2022/10/05 11:28:07;;;;;;;;;;;;;;;32.54;17.73;102025.91;5045149;28;19917;-89
2022/10/05 11:30:45;;;;;;;;;;;;;;;32.58;17.47;102021.47;5042738;28;19924;-90
2022/10/05 11:33:21;;;;;;;;;;;;;;;32.13;17.38;102020.25;5049929;28;20308;-91
2022/10/05 11:36:07;;;;;;;;;;;;;;;30.69;18.93;102017.63;5049303;28;19994;-86
2022/10/05 11:38:51;;;;;;;;;;;;;;;31.07;18.23;102010.19;5042884;28;19917;-90
2022/10/05 11:41:34;;;;;;;;;;;;;;;30.91;17.93;102012.84;5046033;28;19967;-88
2022/10/05 11:44:02;;;;;;;;;;;;;;;31.07;17.85;102007.41;5074527;28;19921;-87
2022/10/05 11:46:35;;;;;;;;;;;;;;;31.32;17.65;102009.53;5051868;28;19956;-88
2022/10/05 11:49:01;;;;;;;;;;;;;;;28.73;19.47;102007.75;5051561;28;19959;-87
2022/10/05 11:51:33;;;;;;;;;;;;;;;29.13;19.32;102009.56;5046276;28;19921;-87
2022/10/05 11:54:17;;;;;;;;;;;;;;;28.68;19.27;102001.28;5044078;28;20003;-90
2022/10/05 11:56:52;;;;;;;;;;;;;;;27.79;20.27;102010.84;5047186;28;19927;-88
2022/10/05 11:59:30;;;;;;;;;;;;;;;26.67;21.87;102011.78;5044666;28;20001;-87
2022/10/05 12:02:04;;;;;;;;;;;;;;;26.33;22.60;102014.13;5050687;28;20407;-89
2022/10/05 12:04:48;;;;;;;;;;;;;;;26.76;22.42;102015.03;5043012;28;19917;-89
2022/10/05 12:07:52;;;;;;;;;;;;;;;25.70;23.25;102015.31;5040157;28;19917;-89
2022/10/05 12:10:21;;;;;;;;;;;;;;;25.92;23.15;102017.63;4978850;28;20721;-87
2022/10/05 12:12:57;;;;;;;;;;;;;;;25.84;23.22;102007.75;5038211;28;19917;-87
2022/10/05 12:15:31;;;;;;;;;;;;;;;25.76;23.82;102008.91;5034330;28;20476;-86
2022/10/05 12:18:12;;;;;;;;;;;;;;;25.29;24.08;102000.31;5037064;28;20249;-87
2022/10/05 12:21:13;;;;;;;;;;;;;;;24.75;24.24;102004.56;5052950;28;19931;-88
2022/10/05 12:23:45;;;;;;;;;;;;;;;24.71;24.20;101989.56;4986565;28;19942;-90
2022/10/05 12:26:11;;;;;;;;;;;;;;;24.29;25.31;102000.16;5038585;28;19928;-88
2022/10/05 12:28:39;;;;;;;;;;;;;;;24.08;24.59;101999.41;5047823;28;20393;-86
2022/10/05 12:31:19;;;;;;;;;;;;;;;23.74;25.13;102003.34;5050644;28;19925;-91
2022/10/05 12:33:58;;;;;;;;;;;;;;;23.01;25.85;102000.69;5050400;28;19921;-88
2022/10/05 12:36:41;;;;;;;;;;;;;;;22.81;25.78;102004.25;5045532;28;19923;-89
2022/10/05 12:39:06;;;;;;;;;;;;;;;22.67;26.32;102008.03;5056566;28;20000;-88
2022/10/05 12:42:02;;;;;;;;;;;;;;;22.38;26.43;102012.81;5050020;28;20379;-88
2022/10/05 12:44:34;;;;;;;;;;;;;;;22.53;26.29;102007.19;5030907;28;19924;-89
2022/10/05 12:47:17;;;;;;;;;;;;;;;22.40;27.49;102007.97;5054479;28;20008;-89
2022/10/05 12:50:22;;;;;;;;;;;;;;;22.44;26.96;102013.91;5052802;28;19921;-86
2022/10/05 12:52:54;;;;;;;;;;;;;;;22.12;27.61;102013.53;4996670;28;20410;-86
2022/10/05 12:55:29;;;;;;;;;;;;;;;21.98;28.49;102020.00;4997286;28;19956;-88
2022/10/05 12:58:23;;;;;;;;;;;;;;;22.16;28.43;102017.56;5024833;28;19994;-86
2022/10/05 13:01:10;;;;;;;;;;;;;;;22.34;28.47;102023.34;5022681;28;19971;-87
2022/10/05 13:03:36;;;;;;;;;;;;;;;22.08;28.53;102023.25;5047526;28;19917;-88
2022/10/05 13:06:09;;;;;;;;;;;;;;;21.94;28.01;102025.06;5036565;28;20146;-89
2022/10/05 13:08:40;;;;;;;;;;;;;;;21.70;29.10;102030.00;5056229;28;19917;-87
2022/10/05 13:11:12;;;;;;;;;;;;;;;21.66;28.95;102034.19;5040499;28;19917;-87
2022/10/05 13:13:46;;;;;;;;;;;;;;;21.74;28.13;102032.31;5050170;28;19928;-85
2022/10/05 13:16:28;;;;;;;;;;;;;;;21.66;27.90;102031.44;5069496;28;19921;-86
2022/10/05 13:18:54;;;;;;;;;;;;;;;21.58;29.19;102026.13;5054873;28;20329;-82
2022/10/05 13:21:27;;;;;;;;;;;;;;;21.13;29.64;102028.28;5043671;28;19921;-87
2022/10/05 13:23:53;;;;;;;;;;;;;;;21.11;30.18;102024.91;5045644;28;19928;-89
2022/10/05 13:26:31;;;;;;;;;;;;;;;20.73;31.42;102025.19;5050161;28;20369;-87
2022/10/05 13:29:02;;;;;;;;;;;;;;;20.62;31.28;102033.91;5040886;28;20007;-86
2022/10/05 13:31:41;;;;;;;;;;;;;;;20.63;32.74;102022.81;5048836;28;19917;-85
2022/10/05 13:34:23;;;;;;;;;;;;;;;20.47;32.08;102023.00;5049751;28;20384;-85
2022/10/05 13:37:00;;;;;;;;;;;;;;;20.50;34.03;102029.97;5049904;28;19920;-87